createdAt,value
2023-01-08T00:01:59.737Z,16.02
2023-01-08T00:06:56.521Z,16.33
2023-01-08T00:11:53.352Z,18.48
2023-01-08T00:16:51.373Z,18.10
2023-01-08T00:21:48.163Z,18.27
2023-01-08T00:26:44.903Z,15.25
2023-01-08T00:31:41.743Z,17.73
2023-01-08T00:36:39.236Z,17.67
2023-01-08T00:41:36.076Z,18.88
2023-01-08T00:46:32.884Z,24.83
2023-01-08T00:51:29.754Z,21.08
2023-01-08T00:56:27.167Z,21.25
2023-01-08T01:01:24.156Z,20.45
2023-01-08T01:06:21.541Z,20.73
2023-01-08T01:11:21.019Z,27.75
2023-01-08T01:16:18.847Z,27.83
2023-01-08T01:21:22.385Z,26.85
2023-01-08T01:26:20.941Z,29.05
2023-01-08T01:31:19.457Z,32.38
2023-01-08T01:36:17.970Z,34.33
2023-01-08T01:41:23.247Z,37.85
2023-01-08T01:46:28.059Z,33.78
2023-01-08T01:51:31.225Z,34.72
2023-01-08T01:56:28.987Z,32.58
2023-01-08T02:01:27.292Z,29.70
2023-01-08T02:06:35.083Z,34.13
2023-01-08T02:11:42.782Z,30.45
2023-01-08T02:16:46.369Z,27.50
2023-01-08T02:21:53.509Z,35.92
2023-01-08T02:26:55.388Z,35.38
2023-01-08T02:31:52.494Z,29.45
2023-01-08T02:36:51.286Z,31.60
2023-01-08T02:41:57.152Z,27.50
2023-01-08T02:46:57.224Z,33.35
2023-01-08T02:51:56.998Z,25.08
2023-01-08T02:56:59.202Z,27.77
2023-01-08T03:01:56.881Z,27.88
2023-01-08T03:06:53.916Z,27.65
2023-01-08T03:11:58.092Z,25.42
2023-01-08T03:17:00.447Z,26.88
2023-01-08T03:21:58.249Z,28.13
2023-01-08T03:26:59.347Z,24.90
2023-01-08T03:32:02.911Z,31.85
2023-01-08T03:37:04.401Z,28.55
2023-01-08T03:42:07.657Z,23.75
2023-01-08T03:47:06.661Z,20.08
2023-01-08T03:52:03.643Z,25.38
2023-01-08T03:57:01.218Z,19.85
2023-01-08T04:01:58.137Z,22.85
2023-01-08T04:06:55.018Z,22.92
2023-01-08T04:11:51.997Z,29.70
2023-01-08T04:16:49.715Z,23.45
2023-01-08T04:21:46.640Z,23.95
2023-01-08T04:26:43.518Z,24.67
2023-01-08T04:31:40.509Z,23.33
2023-01-08T04:36:38.139Z,26.88
2023-01-08T04:41:34.971Z,20.55
2023-01-08T04:46:31.811Z,33.22
2023-01-08T04:51:28.673Z,26.00
2023-01-08T04:56:26.315Z,23.83
2023-01-08T05:01:25.421Z,20.95
2023-01-08T05:06:22.397Z,27.05
2023-01-08T05:11:19.366Z,24.55
2023-01-08T05:16:17.391Z,27.77
2023-01-08T05:21:14.765Z,27.63
2023-01-08T05:26:11.662Z,30.05
2023-01-08T05:31:08.560Z,28.02
2023-01-08T05:36:07.713Z,33.95
2023-01-08T05:41:05.487Z,41.25
2023-01-08T05:46:03.577Z,150.48
2023-01-08T05:51:00.660Z,107.40
2023-01-08T05:56:02.370Z,151.52
2023-01-08T06:01:04.523Z,102.57
2023-01-08T06:06:03.260Z,92.05
2023-01-08T06:11:01.296Z,100.75
2023-01-08T06:15:58.835Z,207.73
2023-01-08T06:20:55.955Z,203.98
2023-01-08T06:25:53.722Z,140.70
2023-01-08T06:30:52.029Z,77.82
2023-01-08T06:35:49.185Z,49.63
2023-01-08T06:40:46.223Z,46.97
2023-01-08T06:45:43.184Z,39.85
2023-01-08T06:50:40.847Z,29.60
2023-01-08T06:55:40.258Z,21.42
2023-01-08T07:00:38.343Z,23.67
2023-01-08T07:05:36.044Z,22.20
2023-01-08T07:10:35.592Z,20.73
2023-01-08T07:15:32.386Z,22.40
2023-01-08T07:20:30.204Z,19.58
2023-01-08T07:25:27.060Z,26.15
2023-01-08T07:30:30.036Z,19.73
2023-01-08T07:35:27.907Z,23.70
2023-01-08T07:40:24.797Z,21.75
2023-01-08T07:45:21.848Z,24.08
2023-01-08T07:50:20.122Z,38.33
2023-01-08T07:55:16.956Z,36.17
2023-01-08T08:00:14.714Z,32.13
2023-01-08T08:05:11.560Z,38.63
2023-01-08T08:10:11.327Z,29.05
2023-01-08T08:15:09.557Z,24.42
2023-01-08T08:20:07.601Z,29.10
2023-01-08T08:25:05.212Z,26.55
2023-01-08T08:30:03.604Z,27.92
2023-01-08T08:35:00.643Z,26.50
2023-01-08T08:39:57.452Z,29.27
2023-01-08T08:44:54.474Z,29.48
2023-01-08T08:49:52.063Z,32.95
2023-01-08T08:54:48.871Z,28.73
2023-01-08T08:59:45.799Z,25.85
2023-01-08T09:04:42.919Z,44.33
2023-01-08T09:09:41.437Z,30.75
2023-01-08T09:14:38.419Z,26.45
2023-01-08T09:19:35.359Z,30.52
2023-01-08T09:24:32.612Z,26.15
2023-01-08T09:29:30.178Z,28.48
2023-01-08T09:34:27.115Z,40.90
2023-01-08T09:39:24.090Z,32.88
2023-01-08T09:44:26.075Z,39.25
2023-01-08T09:49:28.961Z,35.22
2023-01-08T09:54:27.086Z,31.55
2023-01-08T09:59:24.142Z,32.42
2023-01-08T10:04:25.671Z,29.95
2023-01-08T10:09:26.822Z,28.13
2023-01-08T10:14:26.053Z,31.27
2023-01-08T10:19:28.933Z,31.75
2023-01-08T10:24:33.930Z,30.80
2023-01-08T10:29:33.046Z,26.50
2023-01-08T10:34:52.065Z,24.15
2023-01-08T10:39:53.281Z,25.90
2023-01-08T10:45:01.935Z,22.20
2023-01-08T10:50:01.204Z,22.77
2023-01-08T10:54:58.330Z,20.08
2023-01-08T10:59:55.925Z,19.45
2023-01-08T11:04:53.017Z,20.27
2023-01-08T11:09:53.226Z,23.48
2023-01-08T11:14:51.730Z,22.48
2023-01-08T11:19:48.585Z,26.00
2023-01-08T11:24:46.408Z,24.85
2023-01-08T11:29:47.253Z,25.55
2023-01-08T11:34:51.212Z,25.10
2023-01-08T11:39:48.395Z,20.20
2023-01-08T11:44:57.970Z,19.38
2023-01-08T11:50:09.821Z,18.92
2023-01-08T11:55:19.895Z,19.30
2023-01-08T12:00:34.569Z,16.20
2023-01-08T12:05:40.342Z,16.55
2023-01-08T12:16:07.109Z,17.50
2023-01-08T12:21:13.429Z,17.88
2023-01-08T12:26:19.637Z,18.00
2023-01-08T12:31:44.309Z,20.60
2023-01-08T12:36:48.755Z,22.40
2023-01-08T12:41:48.141Z,18.98
2023-01-08T12:46:45.988Z,22.95
2023-01-08T12:51:58.729Z,20.95
2023-01-08T12:57:06.573Z,22.45
2023-01-08T13:02:21.358Z,18.95
2023-01-08T13:07:21.412Z,21.98
2023-01-08T13:12:34.142Z,20.92
2023-01-08T13:17:32.315Z,20.73
2023-01-08T13:22:31.758Z,21.55
2023-01-08T13:27:32.127Z,21.02
2023-01-08T13:32:41.906Z,21.60
2023-01-08T13:37:38.853Z,23.45
2023-01-08T13:42:41.807Z,23.08
2023-01-08T13:47:46.080Z,22.70
2023-01-08T13:52:45.866Z,23.10
2023-01-08T13:57:46.886Z,38.13
2023-01-08T14:02:50.523Z,29.30
2023-01-08T14:07:48.532Z,25.85
2023-01-08T14:12:47.118Z,23.55
2023-01-08T14:17:45.747Z,35.92
2023-01-08T14:22:43.621Z,21.50
2023-01-08T14:27:41.451Z,24.98
2023-01-08T14:32:43.598Z,22.05
2023-01-08T14:37:42.088Z,19.35
2023-01-08T14:42:42.052Z,20.88
2023-01-08T14:47:45.273Z,19.58
2023-01-08T14:52:44.436Z,21.77
2023-01-08T14:57:46.704Z,22.67
2023-01-08T15:02:47.419Z,19.02
2023-01-08T15:07:59.880Z,20.83
2023-01-08T15:13:00.291Z,28.20
2023-01-08T15:18:01.980Z,26.33
2023-01-08T15:23:04.854Z,27.33
2023-01-08T15:28:05.440Z,18.23
2023-01-08T15:33:08.542Z,23.70
2023-01-08T15:38:20.305Z,29.20
2023-01-08T15:43:18.827Z,25.67
2023-01-08T15:48:16.261Z,28.70
2023-01-08T15:53:17.859Z,31.80
2023-01-08T15:58:16.078Z,31.92
2023-01-08T16:03:14.408Z,31.88
2023-01-08T16:08:11.776Z,28.60
2023-01-08T16:13:11.994Z,35.13
2023-01-08T16:18:09.184Z,38.95
2023-01-08T16:23:06.506Z,30.60
2023-01-08T16:28:04.406Z,36.63
2023-01-08T16:33:02.811Z,39.75
2023-01-08T16:38:00.189Z,38.50
2023-01-08T16:43:00.664Z,36.08
2023-01-08T16:47:58.133Z,33.25
2023-01-08T16:52:55.641Z,37.38
2023-01-08T16:57:55.360Z,39.50
2023-01-08T17:02:52.302Z,33.25
2023-01-08T17:07:51.408Z,34.28
2023-01-08T17:12:50.018Z,40.28
2023-01-08T17:17:47.231Z,33.90
2023-01-08T17:22:44.088Z,35.08
2023-01-08T17:27:41.567Z,35.72
2023-01-08T17:32:40.117Z,40.17
2023-01-08T17:37:37.249Z,39.20
2023-01-08T17:42:34.087Z,41.17
2023-01-08T17:47:31.262Z,41.05
2023-01-08T17:52:30.497Z,44.15
2023-01-08T17:57:30.860Z,40.30
2023-01-08T18:02:30.887Z,39.10
2023-01-08T18:07:28.834Z,45.05
2023-01-08T18:12:25.720Z,42.78
2023-01-08T18:17:23.047Z,47.25
2023-01-08T18:22:19.842Z,45.80
2023-01-08T18:27:17.738Z,48.47
2023-01-08T18:32:15.440Z,48.92
2023-01-08T18:37:13.181Z,43.90
2023-01-08T18:42:29.736Z,45.83
2023-01-08T18:47:28.247Z,35.50
2023-01-08T18:52:26.094Z,34.65
2023-01-08T18:57:23.536Z,41.15
2023-01-08T19:02:24.174Z,35.88
2023-01-08T19:07:21.954Z,38.78
2023-01-08T19:12:19.697Z,39.38
2023-01-08T19:17:16.621Z,43.40
2023-01-08T19:22:14.063Z,45.40
2023-01-08T19:27:11.860Z,45.35
2023-01-08T19:32:09.283Z,40.50
2023-01-08T19:37:09.003Z,40.50
2023-01-08T19:42:24.257Z,45.85
2023-01-08T19:47:23.016Z,39.17
2023-01-08T19:52:20.144Z,45.50
2023-01-08T19:57:21.833Z,48.05
2023-01-08T20:02:21.145Z,49.90
2023-01-08T20:07:18.942Z,39.70
2023-01-08T20:12:16.245Z,46.65
2023-01-08T20:17:14.090Z,41.60
2023-01-08T20:22:11.021Z,41.63
2023-01-08T20:27:10.165Z,45.80
2023-01-08T20:32:07.556Z,46.78
2023-01-08T20:37:05.845Z,45.05
2023-01-08T20:42:04.556Z,44.85
2023-01-08T20:47:02.636Z,48.38
2023-01-08T20:52:00.535Z,50.50
2023-01-08T20:56:58.169Z,40.30
2023-01-08T21:01:56.413Z,49.30
2023-01-08T21:06:54.162Z,46.72
2023-01-08T21:11:53.469Z,46.55
2023-01-08T21:16:50.292Z,55.78
2023-01-08T21:21:47.197Z,113.50
2023-01-08T21:26:45.884Z,129.20
2023-01-08T21:31:42.912Z,137.75
2023-01-08T21:36:39.981Z,167.30
2023-01-08T21:41:55.214Z,166.45
2023-01-08T21:46:54.903Z,160.20
2023-01-08T21:52:09.883Z,139.38
2023-01-08T21:57:07.453Z,125.55
2023-01-08T22:02:06.108Z,152.43
2023-01-08T22:07:03.080Z,156.32
2023-01-08T22:11:59.972Z,148.35
2023-01-08T22:16:56.847Z,158.85
2023-01-08T22:21:54.287Z,81.50
2023-01-08T22:26:51.158Z,79.63
2023-01-08T22:31:48.086Z,65.90
2023-01-08T22:36:49.752Z,60.05
2023-01-08T22:41:47.267Z,67.28
2023-01-08T22:46:44.144Z,34.85
2023-01-08T22:51:41.931Z,53.78
2023-01-08T22:56:38.991Z,31.50
2023-01-08T23:01:37.149Z,61.47
2023-01-08T23:06:34.136Z,44.17
2023-01-08T23:11:32.976Z,42.78
2023-01-08T23:16:29.879Z,54.38
2023-01-08T23:21:27.963Z,45.60
2023-01-08T23:26:27.277Z,156.00
2023-01-08T23:31:26.116Z,99.72
2023-01-08T23:36:23.319Z,80.13
2023-01-08T23:41:22.811Z,84.75
2023-01-08T23:46:19.565Z,92.32
2023-01-08T23:51:16.916Z,69.85
2023-01-08T23:56:14.008Z,84.55
